Oriana — ZCDU9 — position and weather

sailwx.info

Track history (hours):
 
Tides and Currents Weather Stations Pressure Air Temp Water Temp Dewpoint Dewpoint Depression Visibility Wind Speed Wind Dir Waves Ship Positions

Oriana (Bermuda)

Last reported at 2016-May-30 23:00 UTC. Time now 2016-May-31 17:53 UTC.
Position N 45°06' W 008°30'.

Length 261 m; beam 32.2 m; draft 8.2 m.

Type: Ship. MMSI: 310529000.

Wind from 330 at 13 knots

Waves 1.5 meters (5 feet), 5 second period

Barometer 1027.9 mb
Air temperature 15.0 ° C
Visibility: greater than 10.8 NM
Dewpoint 12.3 ° C
Water temperature 14.0 ° C

Date/timePositionNaut miles runAvg speedWind from/ knotsBaromVisibWave heightAir tempDewpointWater temp
2016-May-30 23:00N 45°06' W 008°30'17616.5 330 / 131027.910.8 1.515.012.314.0
2016-May-30 12:20N 47°36' W 006°17'1417.9
2016-May-30 11:33N 47°47' W 006°06'1817.3
2016-May-30 10:32N 48°02' W 005°52'1616.6
2016-May-30 09:33N 48°16' W 005°39'1616.3
2016-May-30 08:33N 48°30' W 005°26'1616.5
2016-May-30 07:33N 48°42' W 005°09'1717.0
2016-May-30 06:33N 48°53' W 004°50'7017.6
2016-May-30 02:33N 49°41' W 003°30'1716.7
2016-May-30 01:33N 49°51' W 003°10'1615.9
2016-May-30 00:33N 49°59' W 002°49'3824.0
2016-May-29 23:00N 50°12' W 001°54'2011.0 350 / 251018.910.8 1.012.511.612.0
2016-May-29 21:12N 50°23' W 001°29'1218.6
2016-May-29 20:33N 50°30' W 001°13'1515.3
2016-May-29 19:34N 50°42' W 000°58'1414.1
2016-May-29 18:34N 50°47' W 001°19'8 8.4
2016-May-29 17:33N 50°54' W 001°26'0 0.0
2016-May-29 16:31N 50°54' W 001°26'0 0.0
2016-May-29 15:31N 50°54' W 001°26'0 0.0
2016-May-29 14:33N 50°54' W 001°26'0 0.0
2016-May-29 13:33N 50°54' W 001°26'0 0.0
2016-May-29 12:33N 50°54' W 001°26'0 0.0
2016-May-29 11:24N 50°54' W 001°26'0 0.0
2016-May-29 10:33N 50°54' W 001°26'0 0.0
2016-May-29 09:33N 50°54' W 001°26'0 0.0
2016-May-29 08:33N 50°54' W 001°26'0 0.0
2016-May-29 07:33N 50°54' W 001°26'0 0.0
2016-May-29 06:27N 50°54' W 001°26'0 0.0
2016-May-29 05:30N 50°54' W 001°26'0 0.2
2016-May-29 04:33N 50°54' W 001°26'8 8.5
2016-May-29 03:34N 50°47' W 001°19'1514.6
2016-May-29 02:33N 50°41' W 000°58'1211.5
2016-May-29 01:34N 50°31' W 001°09'1917.6
2016-May-29 00:28N 50°22' W 001°35'1819.7
2016-May-28 23:34N 50°12' W 001°59'2219.4
2016-May-28 22:24N 49°57' W 002°24'1618.7
2016-May-28 21:33N 49°52' W 002°47'1818.1
2016-May-28 20:33N 49°42' W 003°11'1817.5
2016-May-28 19:33N 49°31' W 003°32'1717.4
2016-May-28 18:34N 49°21' W 003°53'1717.2
2016-May-28 17:33N 49°10' W 004°14'1716.9
2016-May-28 16:33N 49°00' W 004°35'1916.5
2016-May-28 15:26N 48°49' W 004°57'1415.8
2016-May-28 14:34N 48°39' W 005°12'1616.3
2016-May-28 13:34N 48°26' W 005°27'1716.5
2016-May-28 12:34N 48°12' W 005°40'1716.8
2016-May-28 11:34N 47°57' W 005°52'5217.3
2016-May-28 08:31N 47°12' W 006°31'1717.6
2016-May-28 07:33N 46°57' W 006°43'41519.3
2016-May-27 10:00N 40°24' W 009°48'10417.8 180 / 181017.010.8 2.018.015.516.0
2016-May-27 04:08N 38°40' W 009°52'3319.5
2016-May-27 02:26N 38°08' W 009°42'1819.5
2016-May-27 01:29N 37°50' W 009°37'5719.0
2016-May-26 22:31N 36°54' W 009°21'2140.8
2016-May-26 22:00N 36°42' W 009°00'16917.9 210 / 41015.010.8 18.014.617.0
2016-May-26 12:34N 35°58' W 005°37'1514.6
2016-May-26 11:34N 36°07' W 005°23'2 1.8
2016-May-26 10:30N 36°09' W 005°22'0 0.0
2016-May-26 09:31N 36°09' W 005°22'0 0.0
2016-May-26 08:31N 36°09' W 005°22'0 0.0
2016-May-26 07:31N 36°09' W 005°22'0 0.0
2016-May-26 06:31N 36°09' W 005°22'0 0.0
2016-May-26 05:33N 36°09' W 005°22'4 4.2
2016-May-26 04:34N 36°05' W 005°20'22717.3
2016-May-25 15:25N 36°43' W 000°42'2319.8
2016-May-25 14:16N 36°48' W 000°14'1318.0
2016-May-25 13:33N 36°50' E 000°02'1916.0
2016-May-25 12:22N 36°54' E 000°25'1315.1
2016-May-25 11:31N 36°57' E 000°41'2014.9
2016-May-25 10:10N 37°01' E 001°05'4414.9
2016-May-25 07:14N 37°09' E 001°59'11316.3
2016-May-25 00:16N 37°30' E 004°19'1317.7
2016-May-24 23:33N 37°32' E 004°36'3517.6
2016-May-24 21:33N 37°37' E 005°19'1818.1
2016-May-24 20:33N 37°40' E 005°42'1817.6
2016-May-24 19:33N 37°43' E 006°04'17617.5
2016-May-24 09:28N 38°05' E 009°46'11716.9
2016-May-24 02:33N 38°16' E 012°13'1716.9
2016-May-24 01:33N 38°18' E 012°35'1616.5
2016-May-24 00:34N 38°19' E 012°56'1717.1
2016-May-23 23:33N 38°19' E 013°17'1717.3
2016-May-23 22:33N 38°20' E 013°39'1220.5
2016-May-23 22:00N 38°18' E 013°54'715.6 290 / 101017.710.8 18.516.019.0
2016-May-23 21:33N 38°19' E 014°03'1818.0
2016-May-23 20:33N 38°18' E 014°26'1717.4
2016-May-23 19:33N 38°18' E 014°48'1716.9
2016-May-23 18:33N 38°20' E 015°09'1716.5
2016-May-23 17:33N 38°23' E 015°30'1110.6
2016-May-23 16:34N 38°15' E 015°39'5 5.4
2016-May-23 15:33N 38°11' E 015°33'0 0.1
2016-May-23 14:34N 38°11' E 015°33'0 0.0
2016-May-23 13:33N 38°11' E 015°33'0 0.0
2016-May-23 12:32N 38°11' E 015°33'0 0.0
2016-May-23 11:31N 38°11' E 015°33'0 0.0
2016-May-23 10:33N 38°11' E 015°33'0 0.0
2016-May-23 09:33N 38°11' E 015°33'0 0.0
2016-May-23 08:30N 38°11' E 015°33'0 0.0
2016-May-23 07:33N 38°11' E 015°33'0 0.0
2016-May-23 06:31N 38°11' E 015°33'0 0.0
2016-May-23 05:31N 38°11' E 015°33'3 3.0
2016-May-23 04:34N 38°13' E 015°37'1413.6
2016-May-23 03:33N 37°59' E 015°36'1716.2
2016-May-23 02:29N 37°50' E 015°54'259 8.7
2016-May-21 20:30N 41°50' E 018°02'1819.1
2016-May-21 19:33N 42°06' E 017°49'  
Track history (hours):
 
Tides and Currents Weather Stations Pressure Air Temp Water Temp Dewpoint Dewpoint Depression Visibility Wind Speed Wind Dir Waves Ship Positions

Oriana (Bermuda)

Last reported at 2016-May-30 23:00 UTC. Time now 2016-May-31 17:53 UTC.
Position N 45°06' W 008°30'.

Length 261 m; beam 32.2 m; draft 8.2 m.

Type: Ship. MMSI: 310529000.

Wind from 330 at 13 knots

Waves 1.5 meters (5 feet), 5 second period

Barometer 1027.9 mb
Air temperature 15.0 ° C
Visibility: greater than 10.8 NM
Dewpoint 12.3 ° C
Water temperature 14.0 ° C

Date/timePositionNaut miles runAvg speedWind from/ knotsBaromVisibWave heightAir tempDewpointWater temp
2016-May-30 23:00N 45°06' W 008°30'17616.5 330 / 131027.910.8 1.515.012.314.0
2016-May-30 12:20N 47°36' W 006°17'1417.9
2016-May-30 11:33N 47°47' W 006°06'1817.3
2016-May-30 10:32N 48°02' W 005°52'1616.6
2016-May-30 09:33N 48°16' W 005°39'1616.3
2016-May-30 08:33N 48°30' W 005°26'1616.5
2016-May-30 07:33N 48°42' W 005°09'1717.0
2016-May-30 06:33N 48°53' W 004°50'7017.6
2016-May-30 02:33N 49°41' W 003°30'1716.7
2016-May-30 01:33N 49°51' W 003°10'1615.9
2016-May-30 00:33N 49°59' W 002°49'3824.0
2016-May-29 23:00N 50°12' W 001°54'2011.0 350 / 251018.910.8 1.012.511.612.0
2016-May-29 21:12N 50°23' W 001°29'1218.6
2016-May-29 20:33N 50°30' W 001°13'1515.3
2016-May-29 19:34N 50°42' W 000°58'1414.1
2016-May-29 18:34N 50°47' W 001°19'8 8.4
2016-May-29 17:33N 50°54' W 001°26'0 0.0
2016-May-29 16:31N 50°54' W 001°26'0 0.0
2016-May-29 15:31N 50°54' W 001°26'0 0.0
2016-May-29 14:33N 50°54' W 001°26'0 0.0
2016-May-29 13:33N 50°54' W 001°26'0 0.0
2016-May-29 12:33N 50°54' W 001°26'0 0.0
2016-May-29 11:24N 50°54' W 001°26'0 0.0
2016-May-29 10:33N 50°54' W 001°26'0 0.0
2016-May-29 09:33N 50°54' W 001°26'0 0.0
2016-May-29 08:33N 50°54' W 001°26'0 0.0
2016-May-29 07:33N 50°54' W 001°26'0 0.0
2016-May-29 06:27N 50°54' W 001°26'0 0.0
2016-May-29 05:30N 50°54' W 001°26'0 0.2
2016-May-29 04:33N 50°54' W 001°26'8 8.5
2016-May-29 03:34N 50°47' W 001°19'1514.6
2016-May-29 02:33N 50°41' W 000°58'1211.5
2016-May-29 01:34N 50°31' W 001°09'1917.6
2016-May-29 00:28N 50°22' W 001°35'1819.7
2016-May-28 23:34N 50°12' W 001°59'2219.4
2016-May-28 22:24N 49°57' W 002°24'1618.7
2016-May-28 21:33N 49°52' W 002°47'1818.1
2016-May-28 20:33N 49°42' W 003°11'1817.5
2016-May-28 19:33N 49°31' W 003°32'1717.4
2016-May-28 18:34N 49°21' W 003°53'1717.2
2016-May-28 17:33N 49°10' W 004°14'1716.9
2016-May-28 16:33N 49°00' W 004°35'1916.5
2016-May-28 15:26N 48°49' W 004°57'1415.8
2016-May-28 14:34N 48°39' W 005°12'1616.3
2016-May-28 13:34N 48°26' W 005°27'1716.5
2016-May-28 12:34N 48°12' W 005°40'1716.8
2016-May-28 11:34N 47°57' W 005°52'5217.3
2016-May-28 08:31N 47°12' W 006°31'1717.6
2016-May-28 07:33N 46°57' W 006°43'41519.3
2016-May-27 10:00N 40°24' W 009°48'10417.8 180 / 181017.010.8 2.018.015.516.0
2016-May-27 04:08N 38°40' W 009°52'3319.5
2016-May-27 02:26N 38°08' W 009°42'1819.5
2016-May-27 01:29N 37°50' W 009°37'5719.0
2016-May-26 22:31N 36°54' W 009°21'2140.8
2016-May-26 22:00N 36°42' W 009°00'16917.9 210 / 41015.010.8 18.014.617.0
2016-May-26 12:34N 35°58' W 005°37'1514.6
2016-May-26 11:34N 36°07' W 005°23'2 1.8
2016-May-26 10:30N 36°09' W 005°22'0 0.0
2016-May-26 09:31N 36°09' W 005°22'0 0.0
2016-May-26 08:31N 36°09' W 005°22'0 0.0
2016-May-26 07:31N 36°09' W 005°22'0 0.0
2016-May-26 06:31N 36°09' W 005°22'0 0.0
2016-May-26 05:33N 36°09' W 005°22'4 4.2
2016-May-26 04:34N 36°05' W 005°20'22717.3
2016-May-25 15:25N 36°43' W 000°42'2319.8
2016-May-25 14:16N 36°48' W 000°14'1318.0
2016-May-25 13:33N 36°50' E 000°02'1916.0
2016-May-25 12:22N 36°54' E 000°25'1315.1
2016-May-25 11:31N 36°57' E 000°41'2014.9
2016-May-25 10:10N 37°01' E 001°05'4414.9
2016-May-25 07:14N 37°09' E 001°59'11316.3
2016-May-25 00:16N 37°30' E 004°19'1317.7
2016-May-24 23:33N 37°32' E 004°36'3517.6
2016-May-24 21:33N 37°37' E 005°19'1818.1
2016-May-24 20:33N 37°40' E 005°42'1817.6
2016-May-24 19:33N 37°43' E 006°04'17617.5
2016-May-24 09:28N 38°05' E 009°46'11716.9
2016-May-24 02:33N 38°16' E 012°13'1716.9
2016-May-24 01:33N 38°18' E 012°35'1616.5
2016-May-24 00:34N 38°19' E 012°56'1717.1
2016-May-23 23:33N 38°19' E 013°17'1717.3
2016-May-23 22:33N 38°20' E 013°39'1220.5
2016-May-23 22:00N 38°18' E 013°54'715.6 290 / 101017.710.8 18.516.019.0
2016-May-23 21:33N 38°19' E 014°03'1818.0
2016-May-23 20:33N 38°18' E 014°26'1717.4
2016-May-23 19:33N 38°18' E 014°48'1716.9
2016-May-23 18:33N 38°20' E 015°09'1716.5
2016-May-23 17:33N 38°23' E 015°30'1110.6
2016-May-23 16:34N 38°15' E 015°39'5 5.4
2016-May-23 15:33N 38°11' E 015°33'0 0.1
2016-May-23 14:34N 38°11' E 015°33'0 0.0
2016-May-23 13:33N 38°11' E 015°33'0 0.0
2016-May-23 12:32N 38°11' E 015°33'0 0.0
2016-May-23 11:31N 38°11' E 015°33'0 0.0
2016-May-23 10:33N 38°11' E 015°33'0 0.0
2016-May-23 09:33N 38°11' E 015°33'0 0.0
2016-May-23 08:30N 38°11' E 015°33'0 0.0
2016-May-23 07:33N 38°11' E 015°33'0 0.0
2016-May-23 06:31N 38°11' E 015°33'0 0.0
2016-May-23 05:31N 38°11' E 015°33'3 3.0
2016-May-23 04:34N 38°13' E 015°37'1413.6
2016-May-23 03:33N 37°59' E 015°36'1716.2
2016-May-23 02:29N 37°50' E 015°54'259 8.7
2016-May-21 20:30N 41°50' E 018°02'1819.1
2016-May-21 19:33N 42°06' E 017°49'  

Dump ship's entire track history